createdAt,value
2017-10-30T00:00:15.569Z,0
2017-10-30T00:01:26.281Z,0
2017-10-30T00:02:36.800Z,0
2017-10-30T00:03:47.277Z,0
2017-10-30T00:04:57.753Z,0
2017-10-30T00:06:08.236Z,0
2017-10-30T00:07:18.706Z,0
2017-10-30T00:08:29.149Z,0
2017-10-30T00:09:39.641Z,0
2017-10-30T00:10:50.119Z,0
2017-10-30T00:12:00.727Z,0
2017-10-30T00:13:11.198Z,0
2017-10-30T00:14:21.218Z,0
2017-10-30T00:15:31.696Z,0
2017-10-30T00:16:42.142Z,0
2017-10-30T00:17:52.623Z,0
2017-10-30T00:19:03.092Z,0
2017-10-30T00:20:13.787Z,0
2017-10-30T00:21:24.292Z,0
2017-10-30T00:22:34.766Z,0
2017-10-30T00:23:45.245Z,0
2017-10-30T00:24:55.760Z,0
2017-10-30T00:26:06.257Z,0
2017-10-30T00:27:16.736Z,0
2017-10-30T00:28:27.173Z,0
2017-10-30T00:29:37.774Z,0
2017-10-30T00:30:48.268Z,0
2017-10-30T00:31:58.729Z,0
2017-10-30T00:33:09.369Z,0
2017-10-30T00:34:19.849Z,0
2017-10-30T00:35:30.371Z,0
2017-10-30T00:36:40.864Z,0
2017-10-30T00:37:51.442Z,0
2017-10-30T00:39:01.991Z,0
2017-10-30T00:40:12.678Z,0
2017-10-30T00:41:23.153Z,0
2017-10-30T00:42:33.612Z,0
2017-10-30T00:43:44.061Z,0
2017-10-30T00:44:54.587Z,0
2017-10-30T00:46:05.044Z,0
2017-10-30T00:47:15.512Z,0
2017-10-30T00:48:25.955Z,0
2017-10-30T00:49:36.535Z,0
2017-10-30T00:50:47.087Z,0
2017-10-30T00:51:57.529Z,0
2017-10-30T00:53:07.993Z,0
2017-10-30T00:54:18.454Z,0
2017-10-30T00:55:28.921Z,0
2017-10-30T00:56:39.391Z,0
2017-10-30T00:57:49.924Z,0
2017-10-30T00:59:00.370Z,0
2017-10-30T01:00:10.842Z,0
2017-10-30T01:01:20.992Z,0
2017-10-30T01:02:31.482Z,0
2017-10-30T01:03:42.033Z,0
2017-10-30T01:04:52.500Z,0
2017-10-30T01:06:02.967Z,0
2017-10-30T01:07:13.424Z,0
2017-10-30T01:08:24.044Z,0
2017-10-30T01:09:34.583Z,0
2017-10-30T01:10:45.011Z,0
2017-10-30T01:11:55.440Z,0
2017-10-30T01:13:05.916Z,0
2017-10-30T01:14:16.610Z,0
2017-10-30T01:15:26.754Z,0
2017-10-30T01:16:36.880Z,0
2017-10-30T01:17:47.340Z,0
2017-10-30T01:18:57.808Z,0
2017-10-30T01:20:08.283Z,0
2017-10-30T01:21:18.968Z,0
2017-10-30T01:22:29.421Z,0
2017-10-30T01:23:39.858Z,0
2017-10-30T01:24:50.354Z,0
2017-10-30T01:26:00.812Z,0
2017-10-30T01:27:10.850Z,0
2017-10-30T01:28:21.287Z,0
2017-10-30T01:29:31.482Z,0
2017-10-30T01:30:41.989Z,0
2017-10-30T01:31:52.464Z,0
2017-10-30T01:33:02.910Z,0
2017-10-30T01:34:13.375Z,0
2017-10-30T01:35:23.930Z,0
2017-10-30T01:36:34.395Z,0
2017-10-30T01:37:44.857Z,0
2017-10-30T01:38:55.354Z,0
2017-10-30T01:40:05.884Z,0
2017-10-30T01:41:16.369Z,0
2017-10-30T01:42:26.841Z,0
2017-10-30T01:43:37.283Z,0
2017-10-30T01:44:47.724Z,0
2017-10-30T01:45:58.321Z,0
2017-10-30T01:47:08.822Z,0
2017-10-30T01:48:19.323Z,0
2017-10-30T01:49:29.497Z,0
2017-10-30T01:50:39.951Z,0
2017-10-30T01:51:50.050Z,0
2017-10-30T01:53:00.826Z,0
2017-10-30T01:54:11.421Z,0
2017-10-30T01:55:21.981Z,0
2017-10-30T01:56:32.410Z,0
2017-10-30T01:57:42.869Z,0
2017-10-30T01:58:53.420Z,0
2017-10-30T02:00:03.879Z,0
2017-10-30T02:01:14.306Z,0
2017-10-30T02:02:24.771Z,0
2017-10-30T02:03:34.882Z,0
2017-10-30T02:04:45.620Z,0
2017-10-30T02:05:56.140Z,0
2017-10-30T02:07:06.592Z,0
2017-10-30T02:08:17.259Z,0
2017-10-30T02:09:27.745Z,0
2017-10-30T02:10:38.342Z,0
2017-10-30T02:11:49.061Z,0
2017-10-30T02:12:59.511Z,0
2017-10-30T02:14:10.098Z,0
2017-10-30T02:15:20.763Z,0
2017-10-30T02:16:31.201Z,0
2017-10-30T02:17:41.411Z,0
2017-10-30T02:18:51.940Z,0
2017-10-30T02:20:02.406Z,0
2017-10-30T02:21:12.884Z,0
2017-10-30T02:22:23.373Z,0
2017-10-30T02:23:33.853Z,0
2017-10-30T02:24:44.334Z,0
2017-10-30T02:25:54.807Z,0
2017-10-30T02:27:05.237Z,0
2017-10-30T02:28:15.684Z,0
2017-10-30T02:29:26.164Z,0
2017-10-30T02:30:36.602Z,0
2017-10-30T02:31:47.046Z,0
2017-10-30T02:32:57.180Z,0
2017-10-30T02:34:07.675Z,0
2017-10-30T02:35:18.142Z,0
2017-10-30T02:36:28.296Z,0
2017-10-30T02:37:38.795Z,0
2017-10-30T02:38:49.250Z,0
2017-10-30T02:39:59.738Z,0
2017-10-30T02:41:10.241Z,0
2017-10-30T02:42:20.721Z,0
2017-10-30T02:43:31.149Z,0
2017-10-30T02:44:41.602Z,0
2017-10-30T02:45:52.065Z,0
2017-10-30T02:47:02.612Z,0
2017-10-30T02:48:12.802Z,0
2017-10-30T02:49:23.248Z,0
2017-10-30T02:50:33.577Z,0
2017-10-30T02:51:44.027Z,0
2017-10-30T02:52:54.501Z,0
2017-10-30T02:54:04.628Z,0
2017-10-30T02:55:14.772Z,0
2017-10-30T02:56:25.226Z,0
2017-10-30T02:57:35.660Z,0
2017-10-30T02:58:46.219Z,0
2017-10-30T02:59:56.676Z,0
2017-10-30T03:01:07.160Z,0
2017-10-30T03:02:17.619Z,0
2017-10-30T03:03:28.074Z,0
2017-10-30T03:04:38.528Z,0
2017-10-30T03:05:49.004Z,0
2017-10-30T03:06:59.466Z,0
2017-10-30T03:08:10.124Z,0
2017-10-30T03:09:20.669Z,0
2017-10-30T03:10:31.135Z,0
2017-10-30T03:11:42.723Z,0
2017-10-30T03:12:53.154Z,0
2017-10-30T03:14:03.592Z,0
2017-10-30T03:15:14.153Z,0
2017-10-30T03:16:24.621Z,0
2017-10-30T03:17:34.769Z,0
2017-10-30T03:18:45.228Z,0
2017-10-30T03:19:55.681Z,0
2017-10-30T03:21:06.153Z,0
2017-10-30T03:22:16.618Z,0
2017-10-30T03:23:26.801Z,0
2017-10-30T03:24:37.293Z,0
2017-10-30T03:25:47.401Z,0
2017-10-30T03:26:57.892Z,0
2017-10-30T03:28:08.355Z,0
2017-10-30T03:29:19.084Z,0
2017-10-30T03:30:29.547Z,0
2017-10-30T03:31:40.639Z,0
2017-10-30T03:32:50.741Z,0
2017-10-30T03:34:01.210Z,0
2017-10-30T03:35:11.679Z,0
2017-10-30T03:36:22.192Z,0
2017-10-30T03:37:32.502Z,0
2017-10-30T03:38:42.966Z,0
2017-10-30T03:39:53.442Z,0
2017-10-30T03:41:03.916Z,0
2017-10-30T03:42:14.356Z,0
2017-10-30T03:43:24.478Z,0
2017-10-30T03:44:34.959Z,0
2017-10-30T03:45:45.435Z,0
2017-10-30T03:46:55.980Z,0
2017-10-30T03:48:06.418Z,0
2017-10-30T03:49:16.977Z,0
2017-10-30T03:50:27.433Z,0
2017-10-30T03:51:36.786Z,0
2017-10-30T03:52:47.355Z,0
2017-10-30T03:53:57.504Z,0
2017-10-30T03:55:07.974Z,0
2017-10-30T03:56:18.635Z,0
2017-10-30T03:57:28.693Z,0
2017-10-30T03:58:39.136Z,0
2017-10-30T03:59:49.838Z,0
2017-10-30T04:01:00.507Z,0
2017-10-30T04:02:10.986Z,0
2017-10-30T04:03:21.655Z,0
2017-10-30T04:04:32.232Z,0
2017-10-30T04:05:42.908Z,0
2017-10-30T04:06:53.338Z,0
2017-10-30T04:08:03.784Z,0
2017-10-30T04:09:14.294Z,0
2017-10-30T04:10:24.369Z,0
2017-10-30T04:11:34.821Z,0
2017-10-30T04:12:45.251Z,0
2017-10-30T04:13:55.716Z,0
2017-10-30T04:15:06.223Z,0
2017-10-30T04:16:16.639Z,0
2017-10-30T04:17:27.173Z,0
2017-10-30T04:18:37.662Z,0
2017-10-30T04:19:48.156Z,0
2017-10-30T04:20:58.267Z,0
2017-10-30T04:22:08.405Z,0
2017-10-30T04:23:18.855Z,0
2017-10-30T04:24:29.354Z,0
2017-10-30T04:25:39.804Z,0
2017-10-30T04:26:50.326Z,0
2017-10-30T04:28:00.994Z,0
2017-10-30T04:29:11.450Z,0
2017-10-30T04:30:21.989Z,0
2017-10-30T04:31:32.427Z,0
2017-10-30T04:32:42.931Z,0
2017-10-30T04:33:53.385Z,0
2017-10-30T04:35:03.855Z,0
2017-10-30T04:36:14.343Z,0
2017-10-30T04:37:24.964Z,0
2017-10-30T04:38:35.404Z,0
2017-10-30T04:39:45.979Z,0
2017-10-30T04:40:56.451Z,0
2017-10-30T04:42:06.949Z,0
2017-10-30T04:43:17.401Z,0
2017-10-30T04:44:27.892Z,0
2017-10-30T04:45:38.347Z,0
2017-10-30T04:46:48.986Z,0
2017-10-30T04:47:59.133Z,0
2017-10-30T04:49:09.750Z,0
2017-10-30T04:50:20.197Z,0
2017-10-30T04:51:30.640Z,0
2017-10-30T04:52:41.093Z,0
2017-10-30T04:53:51.549Z,0
2017-10-30T04:55:02.083Z,0
2017-10-30T04:56:12.522Z,0
2017-10-30T04:57:22.977Z,0
2017-10-30T04:58:33.476Z,0
2017-10-30T04:59:43.938Z,0
2017-10-30T05:00:54.369Z,0
2017-10-30T05:02:04.810Z,0
2017-10-30T05:03:15.299Z,0
2017-10-30T05:04:25.752Z,0
2017-10-30T05:05:36.188Z,0
2017-10-30T05:06:46.825Z,0
2017-10-30T05:07:57.282Z,0
2017-10-30T05:09:07.719Z,0
2017-10-30T05:10:18.154Z,0
2017-10-30T05:11:28.324Z,0
2017-10-30T05:12:38.789Z,0
2017-10-30T05:13:49.268Z,0
2017-10-30T05:14:59.756Z,0
2017-10-30T05:16:10.217Z,0
2017-10-30T05:17:20.730Z,0
2017-10-30T05:18:31.221Z,0
2017-10-30T05:19:41.673Z,0
2017-10-30T05:20:52.148Z,0
2017-10-30T05:22:02.591Z,0
2017-10-30T05:23:13.073Z,0
2017-10-30T05:24:23.402Z,0
2017-10-30T05:25:33.861Z,0
2017-10-30T05:26:44.320Z,0
2017-10-30T05:27:54.683Z,0
2017-10-30T05:29:05.131Z,0
2017-10-30T05:30:15.583Z,0
2017-10-30T05:31:26.059Z,4
2017-10-30T05:32:36.539Z,0
2017-10-30T05:33:46.959Z,4
2017-10-30T05:34:57.401Z,4
2017-10-30T05:36:07.839Z,4
2017-10-30T05:37:18.304Z,4
2017-10-30T05:38:28.789Z,8
2017-10-30T05:39:39.330Z,8
2017-10-30T05:40:49.345Z,8
2017-10-30T05:41:59.856Z,12
2017-10-30T05:43:10.322Z,16
2017-10-30T05:44:20.788Z,20
2017-10-30T05:45:30.912Z,20
2017-10-30T05:46:41.352Z,24
2017-10-30T05:47:51.899Z,32
2017-10-30T05:49:02.368Z,36
2017-10-30T05:50:12.881Z,44
2017-10-30T05:51:23.412Z,52
2017-10-30T05:52:33.875Z,60
2017-10-30T05:53:44.425Z,68
2017-10-30T05:54:54.863Z,84
2017-10-30T05:56:05.324Z,96
2017-10-30T05:57:15.824Z,112
2017-10-30T05:58:26.327Z,128
2017-10-30T05:59:36.759Z,140
2017-10-30T06:00:46.924Z,160
2017-10-30T06:01:57.487Z,184
2017-10-30T06:03:08.002Z,204
2017-10-30T06:04:18.462Z,228
2017-10-30T06:05:28.901Z,248
2017-10-30T06:06:39.387Z,276
2017-10-30T06:07:49.842Z,304
2017-10-30T06:09:00.417Z,332
2017-10-30T06:10:11.321Z,360
2017-10-30T06:11:21.796Z,388
2017-10-30T06:12:32.314Z,424
2017-10-30T06:13:42.746Z,452
2017-10-30T06:14:53.190Z,488
2017-10-30T06:16:03.702Z,520
2017-10-30T06:17:14.166Z,552
2017-10-30T06:18:24.660Z,588
2017-10-30T06:19:35.162Z,624
2017-10-30T06:20:45.608Z,660
2017-10-30T06:21:56.093Z,696
2017-10-30T06:23:06.589Z,736
2017-10-30T06:24:17.066Z,776
2017-10-30T06:25:27.559Z,816
2017-10-30T06:26:38.035Z,856
2017-10-30T06:27:48.511Z,904
2017-10-30T06:28:58.968Z,952
2017-10-30T06:30:09.482Z,1004
2017-10-30T06:31:19.963Z,1072
2017-10-30T06:32:30.526Z,1196
2017-10-30T06:33:40.975Z,1328
2017-10-30T06:34:51.454Z,1432
2017-10-30T06:36:01.505Z,1528
2017-10-30T06:37:11.963Z,1620
2017-10-30T06:38:22.415Z,1700
2017-10-30T06:39:32.878Z,1788
2017-10-30T06:40:43.585Z,1984
2017-10-30T06:41:54.083Z,2240
2017-10-30T06:43:04.562Z,2500
2017-10-30T06:44:15.031Z,2760
2017-10-30T06:45:25.534Z,3476
2017-10-30T06:46:35.994Z,3788
2017-10-30T06:47:46.453Z,4112
2017-10-30T06:48:56.956Z,4436
2017-10-30T06:50:07.405Z,4996
2017-10-30T06:51:17.876Z,5360
2017-10-30T06:52:27.589Z,5636
2017-10-30T06:53:38.026Z,5956
2017-10-30T06:54:48.632Z,6296
2017-10-30T06:55:59.092Z,6664
2017-10-30T06:57:09.548Z,6996
2017-10-30T06:58:19.985Z,7340
2017-10-30T06:59:30.131Z,7684
2017-10-30T07:00:40.720Z,8056
2017-10-30T07:01:51.185Z,8372
2017-10-30T07:03:01.654Z,8676
2017-10-30T07:04:12.096Z,8956
2017-10-30T07:05:22.573Z,9264
2017-10-30T07:06:32.765Z,9548
2017-10-30T07:07:43.468Z,9924
2017-10-30T07:08:53.942Z,10192
2017-10-30T07:10:04.436Z,10444
2017-10-30T07:11:14.877Z,10740
2017-10-30T07:12:25.378Z,10904
2017-10-30T07:13:35.836Z,11204
2017-10-30T07:14:46.299Z,11504
2017-10-30T07:15:56.758Z,12000
2017-10-30T07:17:07.485Z,12384
2017-10-30T07:18:17.968Z,12832
2017-10-30T07:19:28.461Z,13184
2017-10-30T07:20:38.970Z,13440
2017-10-30T07:21:49.655Z,13696
2017-10-30T07:23:00.240Z,14144
2017-10-30T07:24:10.766Z,14560
2017-10-30T07:25:21.114Z,14784
2017-10-30T07:26:31.589Z,15296
2017-10-30T07:27:42.068Z,15744
2017-10-30T07:28:52.537Z,15808
2017-10-30T07:30:03.033Z,16000
2017-10-30T07:31:13.545Z,16288
2017-10-30T07:32:24.236Z,17056
2017-10-30T07:33:34.760Z,17280
2017-10-30T07:34:45.231Z,17312
2017-10-30T07:35:55.670Z,17792
2017-10-30T07:37:05.824Z,18144
2017-10-30T07:38:16.269Z,18528
2017-10-30T07:39:26.827Z,18752
2017-10-30T07:40:37.358Z,18944
2017-10-30T07:41:47.840Z,18976
2017-10-30T07:42:58.361Z,19040
2017-10-30T07:44:08.835Z,19488
2017-10-30T07:45:18.988Z,20096
2017-10-30T07:46:29.438Z,20544
2017-10-30T07:47:39.914Z,20736
2017-10-30T07:48:50.440Z,20672
2017-10-30T07:50:00.922Z,21024
2017-10-30T07:51:11.433Z,21728
2017-10-30T07:52:21.898Z,21952
2017-10-30T07:53:32.629Z,21856
2017-10-30T07:54:43.117Z,21952
2017-10-30T07:55:53.603Z,22944
2017-10-30T07:57:04.227Z,23072
2017-10-30T07:58:14.695Z,23392
2017-10-30T07:59:25.175Z,23648
2017-10-30T08:00:35.946Z,23552
2017-10-30T08:01:46.434Z,24064
2017-10-30T08:02:56.908Z,24992
2017-10-30T08:04:07.405Z,25280
2017-10-30T08:05:18.125Z,25728
2017-10-30T08:06:28.712Z,25536
2017-10-30T08:07:39.196Z,26112
2017-10-30T08:08:49.368Z,26720
2017-10-30T08:09:59.837Z,27392
2017-10-30T08:11:10.320Z,28096
2017-10-30T08:12:21.018Z,27040
2017-10-30T08:13:31.582Z,27616
2017-10-30T08:14:42.128Z,29280
2017-10-30T08:15:52.862Z,29120
2017-10-30T08:17:03.331Z,29408
2017-10-30T08:18:13.834Z,29280
2017-10-30T08:19:24.325Z,29184
2017-10-30T08:20:34.796Z,29568
2017-10-30T08:21:45.356Z,28992
2017-10-30T08:22:55.923Z,30208
2017-10-30T08:24:06.491Z,32480
2017-10-30T08:25:16.701Z,32032
2017-10-30T08:26:27.210Z,31904
2017-10-30T08:27:37.711Z,33568
2017-10-30T08:28:48.278Z,33248
2017-10-30T08:29:58.786Z,32672
2017-10-30T08:31:09.285Z,33440
2017-10-30T08:32:19.772Z,33280
2017-10-30T08:33:30.232Z,32864
2017-10-30T08:34:40.709Z,34816
2017-10-30T08:35:51.180Z,34528
2017-10-30T08:37:01.654Z,33920
2017-10-30T08:38:12.127Z,33664
2017-10-30T08:39:22.647Z,36224
2017-10-30T08:40:33.141Z,36768
2017-10-30T08:41:43.636Z,37312
2017-10-30T08:42:54.115Z,33728
2017-10-30T08:44:04.266Z,35552
2017-10-30T08:45:14.768Z,35392
2017-10-30T08:46:25.259Z,37920
2017-10-30T08:47:35.787Z,39328
2017-10-30T08:48:46.294Z,39264
2017-10-30T08:49:56.780Z,37376
2017-10-30T08:51:07.244Z,38240
2017-10-30T08:52:18.230Z,38944
2017-10-30T08:53:28.813Z,38784
2017-10-30T08:54:39.323Z,37248
2017-10-30T08:55:50.042Z,41184
2017-10-30T08:57:00.572Z,39776
2017-10-30T08:58:11.092Z,38368
2017-10-30T08:59:21.290Z,39200
2017-10-30T09:00:31.796Z,39904
2017-10-30T09:01:41.855Z,40896
2017-10-30T09:02:52.353Z,40256
2017-10-30T09:04:02.935Z,43200
2017-10-30T09:05:13.425Z,46304
2017-10-30T09:06:23.901Z,44576
2017-10-30T09:07:34.467Z,40064
2017-10-30T09:08:45.043Z,39680
2017-10-30T09:09:55.518Z,43072
2017-10-30T09:11:06.292Z,43872
2017-10-30T09:12:16.806Z,45504
2017-10-30T09:13:27.251Z,45408
2017-10-30T09:14:37.861Z,43648
2017-10-30T09:15:48.569Z,41600
2017-10-30T09:16:59.077Z,41120
2017-10-30T09:18:09.549Z,43168
2017-10-30T09:19:20.267Z,47424
2017-10-30T09:20:30.797Z,44192
2017-10-30T09:21:41.266Z,48544
2017-10-30T09:22:51.865Z,39296
2017-10-30T09:24:02.456Z,40576
2017-10-30T09:25:12.961Z,44224
2017-10-30T09:26:23.465Z,46656
2017-10-30T09:27:33.972Z,49888
2017-10-30T09:28:44.510Z,43776
2017-10-30T09:29:55.167Z,44416
2017-10-30T09:31:05.760Z,44704
2017-10-30T09:32:16.293Z,45248
2017-10-30T09:33:58.700Z,47744
2017-10-30T09:35:09.203Z,50048
2017-10-30T09:36:19.742Z,47744
2017-10-30T09:37:30.141Z,45248
2017-10-30T09:38:40.628Z,47296
2017-10-30T09:39:51.168Z,45920
2017-10-30T09:41:01.686Z,48192
2017-10-30T09:42:12.171Z,52192
2017-10-30T09:43:22.763Z,46752
2017-10-30T09:44:33.244Z,51200
2017-10-30T09:45:43.716Z,52032
2017-10-30T09:46:54.312Z,46304
2017-10-30T09:48:04.857Z,55328
2017-10-30T09:49:15.336Z,49888
2017-10-30T09:50:25.895Z,50240
2017-10-30T09:51:36.356Z,56064
2017-10-30T09:52:47.095Z,53120
2017-10-30T09:53:57.575Z,56224
2017-10-30T09:55:08.069Z,51328
2017-10-30T09:56:18.586Z,52640
2017-10-30T09:57:29.148Z,51296
2017-10-30T09:58:39.657Z,51776
2017-10-30T09:59:50.183Z,54752
2017-10-30T10:01:00.705Z,54464
2017-10-30T10:02:11.197Z,50720
2017-10-30T10:03:21.944Z,53600
2017-10-30T10:04:32.179Z,55968
2017-10-30T10:05:43.025Z,50592
2017-10-30T10:06:53.347Z,52064
2017-10-30T10:08:03.847Z,49312
2017-10-30T10:09:14.336Z,48160
2017-10-30T10:10:24.871Z,51648
2017-10-30T10:11:35.395Z,52448
2017-10-30T10:12:45.874Z,53248
2017-10-30T10:13:56.414Z,46496
2017-10-30T10:15:06.982Z,56736
2017-10-30T10:16:17.561Z,56672
2017-10-30T10:17:28.069Z,58528
2017-10-30T10:18:38.547Z,57440
2017-10-30T10:19:49.062Z,52480
2017-10-30T10:20:59.537Z,61024
2017-10-30T10:22:10.031Z,55936
2017-10-30T10:23:20.512Z,56416
2017-10-30T10:24:31.048Z,61376
2017-10-30T10:25:41.204Z,56992
2017-10-30T10:26:51.716Z,50336
2017-10-30T10:28:02.204Z,53952
2017-10-30T10:29:12.737Z,59584
2017-10-30T10:30:23.307Z,58272
2017-10-30T10:31:33.821Z,57376
2017-10-30T10:32:44.315Z,49856
2017-10-30T10:33:54.885Z,58112
2017-10-30T10:35:05.372Z,54560
2017-10-30T10:36:15.951Z,48640
2017-10-30T10:37:27.466Z,59648
2017-10-30T10:38:37.995Z,62048
2017-10-30T10:39:48.517Z,57312
2017-10-30T10:40:59.046Z,61504
2017-10-30T10:42:09.543Z,59040
2017-10-30T10:43:20.047Z,47072
2017-10-30T10:44:30.580Z,47904
2017-10-30T10:45:41.139Z,57472
2017-10-30T10:46:51.678Z,58656
2017-10-30T10:48:02.239Z,52672
2017-10-30T10:49:12.816Z,60832
2017-10-30T10:50:23.345Z,56064
2017-10-30T10:51:33.890Z,47616
2017-10-30T10:52:44.384Z,50272
2017-10-30T10:53:54.898Z,55552
2017-10-30T10:55:06.398Z,64672
2017-10-30T10:56:16.924Z,57632
2017-10-30T10:57:27.453Z,57312
2017-10-30T10:58:37.970Z,63168
2017-10-30T10:59:48.612Z,52128
2017-10-30T11:00:59.190Z,53056
2017-10-30T11:02:09.804Z,55712
2017-10-30T11:03:20.291Z,54016
2017-10-30T11:04:30.480Z,54048
2017-10-30T11:05:41.153Z,47936
2017-10-30T11:06:51.768Z,44736
2017-10-30T11:08:02.314Z,49920
2017-10-30T11:09:12.850Z,57824
2017-10-30T11:10:23.424Z,60800
2017-10-30T11:11:33.934Z,49888
2017-10-30T11:12:44.423Z,49504
2017-10-30T11:13:54.946Z,64160
2017-10-30T11:15:05.474Z,56704
2017-10-30T11:16:16.002Z,50944
2017-10-30T11:17:26.480Z,51552
2017-10-30T11:18:37.326Z,51904
2017-10-30T11:19:47.822Z,54528
2017-10-30T11:20:58.391Z,56992
2017-10-30T11:22:08.965Z,64384
2017-10-30T11:23:19.162Z,62432
2017-10-30T11:24:29.631Z,55936
2017-10-30T11:25:40.130Z,48064
2017-10-30T11:26:50.644Z,46400
2017-10-30T11:28:01.157Z,53600
2017-10-30T11:29:11.333Z,46784
2017-10-30T11:30:21.499Z,40064
2017-10-30T11:31:31.994Z,56096
2017-10-30T11:32:42.665Z,69376
2017-10-30T11:33:53.214Z,59360
2017-10-30T11:35:03.958Z,57120
2017-10-30T11:36:14.449Z,57664
2017-10-30T11:37:24.912Z,46976
2017-10-30T11:38:35.431Z,46528
2017-10-30T11:39:45.982Z,56032
2017-10-30T11:40:56.461Z,61856
2017-10-30T11:42:06.965Z,52352
2017-10-30T11:43:17.483Z,47520
2017-10-30T11:44:27.977Z,53344
2017-10-30T11:45:38.465Z,48384
2017-10-30T11:46:48.953Z,46304
2017-10-30T11:47:59.457Z,48256
2017-10-30T11:49:10.013Z,53696
2017-10-30T11:50:20.511Z,61760
2017-10-30T11:51:31.166Z,49248
2017-10-30T11:52:41.655Z,46752
2017-10-30T11:53:52.146Z,60352
2017-10-30T11:55:02.772Z,56448
2017-10-30T11:56:13.271Z,51168
2017-10-30T11:57:23.794Z,57376
2017-10-30T11:58:34.347Z,62176
2017-10-30T11:59:44.943Z,64512
2017-10-30T12:00:55.608Z,64256
2017-10-30T12:02:06.138Z,52128
2017-10-30T12:03:16.606Z,52704
2017-10-30T12:04:27.159Z,59072
2017-10-30T12:05:37.628Z,57760
2017-10-30T12:06:48.198Z,59072
2017-10-30T12:07:58.704Z,56736
2017-10-30T12:09:09.242Z,52576
2017-10-30T12:10:19.918Z,60480
2017-10-30T12:11:30.412Z,53920
2017-10-30T12:12:41.251Z,44160
2017-10-30T12:13:51.727Z,55072
2017-10-30T12:15:02.387Z,49088
2017-10-30T12:16:12.547Z,50848
2017-10-30T12:17:23.113Z,59232
2017-10-30T12:18:33.585Z,45856
2017-10-30T12:19:44.324Z,43872
2017-10-30T12:20:54.815Z,53312
2017-10-30T12:22:04.933Z,53696
2017-10-30T12:23:14.986Z,55232
2017-10-30T12:24:25.525Z,53184
2017-10-30T12:25:35.681Z,49632
2017-10-30T12:26:46.184Z,45600
2017-10-30T12:27:56.724Z,51776
2017-10-30T12:29:07.360Z,52384
2017-10-30T12:30:17.881Z,48704
2017-10-30T12:31:28.401Z,25024
2017-10-30T12:32:39.012Z,47616
2017-10-30T12:33:49.108Z,49568
2017-10-30T12:34:59.885Z,55520
2017-10-30T12:36:10.378Z,49888
2017-10-30T12:37:20.872Z,50208
2017-10-30T12:38:31.463Z,51424
2017-10-30T12:39:41.984Z,45440
2017-10-30T12:40:52.495Z,48608
2017-10-30T12:42:03.009Z,52192
2017-10-30T12:43:13.540Z,44896
2017-10-30T12:44:23.820Z,41248
2017-10-30T12:45:34.341Z,42880
2017-10-30T12:46:44.857Z,44192
2017-10-30T12:47:55.462Z,52576
2017-10-30T12:49:06.019Z,49984
2017-10-30T12:50:16.501Z,44512
2017-10-30T12:51:26.685Z,45792
2017-10-30T12:52:37.278Z,28992
2017-10-30T12:53:47.850Z,47232
2017-10-30T12:54:58.352Z,48288
2017-10-30T12:56:10.047Z,39808
2017-10-30T12:57:20.568Z,35520
2017-10-30T12:58:30.716Z,36160
2017-10-30T12:59:40.885Z,38464
2017-10-30T13:00:51.386Z,39104
2017-10-30T13:02:01.942Z,39616
2017-10-30T13:03:12.572Z,41440
2017-10-30T13:04:23.112Z,43232
2017-10-30T13:05:34.692Z,47200
2017-10-30T13:06:45.256Z,46144
2017-10-30T13:07:55.843Z,40576
2017-10-30T13:09:06.056Z,40896
2017-10-30T13:10:16.577Z,44992
2017-10-30T13:11:27.113Z,46080
2017-10-30T13:12:37.693Z,43232
2017-10-30T13:13:48.215Z,41664
2017-10-30T13:14:58.728Z,41760
2017-10-30T13:16:08.877Z,38624
2017-10-30T13:17:19.394Z,39904
2017-10-30T13:18:29.875Z,39680
2017-10-30T13:19:40.390Z,29568
2017-10-30T13:20:50.917Z,21760
2017-10-30T13:22:01.423Z,13240
2017-10-30T13:23:11.920Z,9292
2017-10-30T13:24:22.162Z,7712
2017-10-30T13:25:32.682Z,7468
2017-10-30T13:26:43.173Z,7020
2017-10-30T13:27:53.750Z,6668
2017-10-30T13:29:04.257Z,6352
2017-10-30T13:30:14.761Z,6088
2017-10-30T13:31:25.057Z,5868
2017-10-30T13:32:35.579Z,5668
2017-10-30T13:33:46.126Z,5520
2017-10-30T13:34:56.798Z,5408
2017-10-30T13:36:06.941Z,5308
2017-10-30T13:37:17.025Z,5212
2017-10-30T13:38:27.718Z,5172
2017-10-30T13:39:38.235Z,5148
2017-10-30T13:40:48.782Z,5060
2017-10-30T13:41:58.985Z,4984
2017-10-30T13:43:09.594Z,4924
2017-10-30T13:44:20.138Z,4900
2017-10-30T13:45:30.621Z,4904
2017-10-30T13:46:41.215Z,4960
2017-10-30T13:47:51.738Z,5016
2017-10-30T13:49:02.278Z,5160
2017-10-30T13:50:13.084Z,5128
2017-10-30T13:51:23.584Z,5000
2017-10-30T13:52:34.053Z,4848
2017-10-30T13:53:44.265Z,4732
2017-10-30T13:54:54.726Z,4652
2017-10-30T13:56:05.230Z,4608
2017-10-30T13:57:15.693Z,4572
2017-10-30T13:58:26.149Z,4520
2017-10-30T13:59:36.595Z,4448
2017-10-30T14:00:47.169Z,4424
2017-10-30T14:01:57.248Z,4416
2017-10-30T14:03:07.771Z,4412
2017-10-30T14:04:18.261Z,4376
2017-10-30T14:05:28.382Z,4336
2017-10-30T14:06:38.887Z,4292
2017-10-30T14:07:49.372Z,4248
2017-10-30T14:08:59.834Z,4200
2017-10-30T14:10:10.355Z,4144
2017-10-30T14:11:20.844Z,4088
2017-10-30T14:12:32.025Z,4052
2017-10-30T14:13:42.539Z,4520
2017-10-30T14:14:53.019Z,12672
2017-10-30T14:16:03.584Z,19424
2017-10-30T14:17:14.199Z,18400
2017-10-30T14:18:24.348Z,19264
2017-10-30T14:19:34.880Z,18656
2017-10-30T14:20:45.396Z,18208
2017-10-30T14:21:55.972Z,18624
2017-10-30T14:23:06.437Z,19360
2017-10-30T14:24:16.928Z,18752
2017-10-30T14:25:27.521Z,19264
2017-10-30T14:26:38.054Z,18880
2017-10-30T14:27:48.662Z,18432
2017-10-30T14:29:00.135Z,18336
2017-10-30T14:30:10.672Z,17952
2017-10-30T14:31:21.333Z,17152
2017-10-30T14:32:31.821Z,16352
2017-10-30T14:33:42.354Z,16256
2017-10-30T14:34:52.885Z,12768
2017-10-30T14:36:03.480Z,10696
2017-10-30T14:37:13.977Z,7860
2017-10-30T14:38:24.464Z,4664
2017-10-30T14:39:34.965Z,4152
2017-10-30T14:40:45.480Z,3832
2017-10-30T14:41:56.415Z,3600
2017-10-30T14:43:06.903Z,3424
2017-10-30T14:44:17.100Z,3276
2017-10-30T14:45:27.302Z,3140
2017-10-30T14:46:37.903Z,2988
2017-10-30T14:47:48.074Z,2840
2017-10-30T14:48:58.565Z,2736
2017-10-30T14:50:09.111Z,2648
2017-10-30T14:51:19.712Z,2556
2017-10-30T14:52:30.423Z,2456
2017-10-30T14:53:40.919Z,2380
2017-10-30T14:54:51.451Z,2328
2017-10-30T14:56:01.606Z,2276
2017-10-30T14:57:12.092Z,2224
2017-10-30T14:58:22.567Z,2184
2017-10-30T14:59:33.124Z,2140
2017-10-30T15:00:43.741Z,2096
2017-10-30T15:01:54.210Z,2036
2017-10-30T15:03:04.937Z,1972
2017-10-30T15:04:15.398Z,1916
2017-10-30T15:05:25.938Z,1872
2017-10-30T15:06:36.525Z,1824
2017-10-30T15:07:46.984Z,1780
2017-10-30T15:08:57.472Z,1732
2017-10-30T15:10:07.828Z,1684
2017-10-30T15:11:18.006Z,1636
2017-10-30T15:12:28.447Z,1588
2017-10-30T15:13:38.586Z,1540
2017-10-30T15:14:49.114Z,1492
2017-10-30T15:15:59.590Z,1448
2017-10-30T15:17:10.119Z,1396
2017-10-30T15:18:20.792Z,1352
2017-10-30T15:19:31.358Z,1292
2017-10-30T15:20:41.841Z,1240
2017-10-30T15:21:52.366Z,1192
2017-10-30T15:23:02.901Z,1140
2017-10-30T15:24:13.364Z,1080
2017-10-30T15:25:23.893Z,1036
2017-10-30T15:26:34.623Z,992
2017-10-30T15:27:44.808Z,948
2017-10-30T15:28:55.294Z,896
2017-10-30T15:30:05.922Z,848
2017-10-30T15:31:16.421Z,800
2017-10-30T15:32:26.952Z,752
2017-10-30T15:33:37.410Z,708
2017-10-30T15:34:47.906Z,668
2017-10-30T15:35:58.437Z,632
2017-10-30T15:37:08.903Z,592
2017-10-30T15:38:19.060Z,556
2017-10-30T15:39:29.553Z,520
2017-10-30T15:40:40.066Z,484
2017-10-30T15:41:50.557Z,452
2017-10-30T15:43:01.200Z,416
2017-10-30T15:44:11.703Z,384
2017-10-30T15:45:22.271Z,352
2017-10-30T15:46:32.752Z,324
2017-10-30T15:47:43.257Z,292
2017-10-30T15:48:53.807Z,264
2017-10-30T15:50:04.584Z,240
2017-10-30T15:51:15.286Z,212
2017-10-30T15:52:25.780Z,192
2017-10-30T15:53:36.262Z,168
2017-10-30T15:54:46.853Z,148
2017-10-30T15:55:57.386Z,132
2017-10-30T15:57:07.861Z,112
2017-10-30T15:58:18.369Z,96
2017-10-30T15:59:28.846Z,80
2017-10-30T16:00:39.334Z,68
2017-10-30T16:01:49.864Z,56
2017-10-30T16:03:00.476Z,48